createdAt,value
2019-04-05T00:01:27.933Z,13.72
2019-04-05T00:04:00.870Z,13.72
2019-04-05T00:06:34.184Z,13.70
2019-04-05T00:09:08.457Z,13.70
2019-04-05T00:11:41.404Z,13.69
2019-04-05T00:14:15.663Z,13.67
2019-04-05T00:16:48.715Z,13.67
2019-04-05T00:19:21.674Z,13.65
2019-04-05T00:21:54.460Z,13.62
2019-04-05T00:24:27.379Z,13.59
2019-04-05T00:27:00.312Z,13.62
2019-04-05T00:29:33.273Z,13.59
2019-04-05T00:32:06.156Z,13.58
2019-04-05T00:34:39.377Z,13.55
2019-04-05T00:37:12.328Z,13.56
2019-04-05T00:39:45.432Z,13.53
2019-04-05T00:42:18.411Z,13.53
2019-04-05T00:44:51.323Z,13.50
2019-04-05T00:47:24.242Z,13.50
2019-04-05T00:49:57.173Z,13.50
2019-04-05T00:52:30.444Z,13.48
2019-04-05T00:55:04.541Z,13.50
2019-04-05T00:57:37.428Z,13.50
2019-04-05T01:00:10.511Z,13.48
2019-04-05T01:02:43.504Z,13.48
2019-04-05T01:05:16.349Z,13.46
2019-04-05T01:07:50.702Z,13.45
2019-04-05T01:10:23.631Z,13.42
2019-04-05T01:12:56.751Z,13.42
2019-04-05T01:15:40.189Z,13.42
2019-04-05T01:18:04.213Z,13.41
2019-04-05T01:20:37.943Z,13.39
2019-04-05T01:23:11.031Z,13.43
2019-04-05T01:25:44.903Z,13.41
2019-04-05T01:28:18.213Z,13.37
2019-04-05T01:30:51.469Z,13.39
2019-04-05T01:33:25.062Z,13.38
2019-04-05T01:35:58.020Z,13.38
2019-04-05T01:38:31.283Z,13.35
2019-04-05T01:41:04.165Z,13.32
2019-04-05T01:43:37.245Z,13.31
2019-04-05T01:46:10.173Z,13.30
2019-04-05T01:48:43.091Z,13.30
2019-04-05T01:51:16.931Z,13.25
2019-04-05T01:53:50.330Z,13.27
2019-04-05T01:56:23.192Z,13.21
2019-04-05T01:58:57.085Z,13.20
2019-04-05T02:01:30.391Z,13.17
2019-04-05T02:04:03.304Z,13.14
2019-04-05T02:06:37.356Z,13.13
2019-04-05T02:09:12.687Z,13.11
2019-04-05T02:11:45.605Z,13.08
2019-04-05T02:14:18.612Z,13.06
2019-04-05T02:16:51.543Z,13.04
2019-04-05T02:19:24.433Z,13.01
2019-04-05T02:21:57.383Z,13.01
2019-04-05T02:24:30.184Z,13.00
2019-04-05T02:27:03.142Z,12.97
2019-04-05T02:29:35.980Z,12.96
2019-04-05T02:32:09.928Z,12.93
2019-04-05T02:34:42.881Z,12.92
2019-04-05T02:37:15.843Z,12.88
2019-04-05T02:39:48.774Z,12.87
2019-04-05T02:42:21.702Z,12.88
2019-04-05T02:44:54.581Z,12.86
2019-04-05T02:47:27.474Z,12.84
2019-04-05T02:50:00.520Z,12.80
2019-04-05T02:52:33.632Z,12.82
2019-04-05T02:55:06.429Z,12.79
2019-04-05T02:57:40.953Z,12.76
2019-04-05T03:00:13.988Z,12.75
2019-04-05T03:02:46.912Z,12.75
2019-04-05T03:05:19.922Z,12.69
2019-04-05T03:07:52.965Z,12.69
2019-04-05T03:11:03.904Z,12.67
2019-04-05T03:13:47.581Z,12.66
2019-04-05T03:16:40.167Z,12.66
2019-04-05T03:19:24.240Z,12.63
2019-04-05T03:22:03.227Z,12.62
2019-04-05T03:24:37.303Z,12.58
2019-04-05T03:27:27.580Z,12.56
2019-04-05T03:30:00.427Z,12.56
2019-04-05T03:32:33.536Z,12.53
2019-04-05T03:35:06.584Z,12.49
2019-04-05T03:37:39.576Z,12.45
2019-04-05T03:40:12.521Z,12.45
2019-04-05T03:42:45.385Z,12.44
2019-04-05T03:45:18.322Z,12.39
2019-04-05T03:47:51.197Z,12.35
2019-04-05T03:50:24.147Z,12.34
2019-04-05T03:52:57.041Z,12.29
2019-04-05T03:55:29.920Z,12.29
2019-04-05T03:58:02.902Z,12.24
2019-04-05T04:00:35.762Z,12.21
2019-04-05T04:03:08.609Z,12.18
2019-04-05T04:05:41.460Z,12.14
2019-04-05T04:08:14.491Z,12.10
2019-04-05T04:10:47.385Z,12.11
2019-04-05T04:13:20.388Z,12.07
2019-04-05T04:15:53.521Z,12.01
2019-04-05T04:18:26.717Z,11.98
2019-04-05T04:21:04.462Z,11.96
2019-04-05T04:23:37.472Z,11.94
2019-04-05T04:26:10.325Z,11.89
2019-04-05T04:28:43.135Z,11.84
2019-04-05T04:31:16.112Z,11.83
2019-04-05T04:33:49.374Z,11.82
2019-04-05T04:36:22.320Z,11.80
2019-04-05T04:38:55.267Z,11.74
2019-04-05T04:41:31.776Z,11.73
2019-04-05T04:44:02.900Z,11.69
2019-04-05T04:46:36.158Z,11.66
2019-04-05T04:49:09.487Z,11.66
2019-04-05T04:51:42.294Z,11.62
2019-04-05T04:54:15.491Z,11.61
2019-04-05T04:56:48.542Z,11.61
2019-04-05T04:59:21.911Z,11.59
2019-04-05T05:01:54.728Z,11.59
2019-04-05T05:04:27.678Z,11.59
2019-04-05T05:07:00.571Z,11.56
2019-04-05T05:09:33.533Z,11.58
2019-04-05T05:12:06.454Z,11.59
2019-04-05T05:14:41.207Z,11.59
2019-04-05T05:17:14.401Z,11.63
2019-04-05T05:19:47.370Z,11.63
2019-04-05T05:22:20.264Z,11.66
2019-04-05T05:24:53.223Z,11.69
2019-04-05T05:27:26.177Z,11.73
2019-04-05T05:29:59.166Z,11.73
2019-04-05T05:32:32.131Z,11.76
2019-04-05T05:35:05.527Z,11.83
2019-04-05T05:37:38.560Z,11.90
2019-04-05T05:40:11.640Z,11.98
2019-04-05T05:42:44.523Z,12.08
2019-04-05T05:45:17.497Z,12.17
2019-04-05T05:47:52.193Z,12.29
2019-04-05T05:50:25.058Z,12.42
2019-04-05T05:52:57.850Z,12.53
2019-04-05T05:55:30.669Z,12.65
2019-04-05T05:58:03.689Z,12.79
2019-04-05T06:00:36.757Z,12.93
2019-04-05T06:03:11.323Z,13.07
2019-04-05T06:05:44.098Z,13.18
2019-04-05T06:08:17.121Z,13.34
2019-04-05T06:10:49.989Z,13.45
2019-04-05T06:13:22.867Z,13.56
2019-04-05T06:15:55.751Z,13.62
2019-04-05T06:18:28.706Z,13.69
2019-04-05T06:21:03.454Z,13.77
2019-04-05T06:23:36.172Z,13.82
2019-04-05T06:26:09.099Z,13.87
2019-04-05T06:28:42.063Z,13.89
2019-04-05T06:31:14.998Z,13.92
2019-04-05T06:33:47.850Z,13.94
2019-04-05T06:36:20.774Z,13.94
2019-04-05T06:38:53.541Z,13.97
2019-04-05T06:41:26.458Z,14.01
2019-04-05T06:43:59.378Z,14.03
2019-04-05T06:46:32.452Z,14.05
2019-04-05T06:49:05.470Z,14.08
2019-04-05T06:51:38.351Z,14.07
2019-04-05T06:54:11.598Z,14.10
2019-04-05T06:56:44.515Z,14.13
2019-04-05T06:59:19.334Z,14.14
2019-04-05T07:01:51.978Z,14.17
2019-04-05T07:04:24.928Z,14.20
2019-04-05T07:06:58.242Z,14.22
2019-04-05T07:09:33.977Z,14.24
2019-04-05T07:12:05.743Z,14.28
2019-04-05T07:14:38.694Z,14.29
2019-04-05T07:17:11.586Z,14.36
2019-04-05T07:19:44.462Z,14.43
2019-04-05T07:22:17.342Z,14.55
2019-04-05T07:24:50.189Z,14.66
2019-04-05T07:27:23.045Z,14.76
2019-04-05T07:29:55.907Z,14.91
2019-04-05T07:32:31.169Z,15.06
2019-04-05T07:35:03.255Z,15.21
2019-04-05T07:37:36.123Z,15.35
2019-04-05T07:40:09.577Z,15.51
2019-04-05T07:42:42.570Z,15.68
2019-04-05T07:45:15.500Z,15.86
2019-04-05T07:47:48.354Z,15.97
2019-04-05T07:50:21.240Z,16.11
2019-04-05T07:52:54.180Z,16.25
2019-04-05T07:55:27.017Z,16.38
2019-04-05T07:57:59.893Z,16.52
2019-04-05T08:01:05.578Z,16.64
2019-04-05T08:03:38.443Z,16.82
2019-04-05T08:06:11.469Z,17.00
2019-04-05T08:09:11.125Z,17.10
2019-04-05T08:11:45.520Z,17.25
2019-04-05T08:14:18.663Z,17.37
2019-04-05T08:16:53.688Z,17.46
2019-04-05T08:19:26.504Z,17.56
2019-04-05T08:21:59.550Z,17.68
2019-04-05T08:24:32.342Z,17.77
2019-04-05T08:27:05.788Z,17.89
2019-04-05T08:29:38.645Z,18.04
2019-04-05T08:32:14.851Z,18.14
2019-04-05T08:34:46.157Z,18.25
2019-04-05T08:37:19.025Z,18.32
2019-04-05T08:39:52.047Z,18.44
2019-04-05T08:42:24.937Z,18.55
2019-04-05T08:44:58.142Z,18.63
2019-04-05T08:47:31.097Z,18.75
2019-04-05T08:50:04.697Z,18.84
2019-04-05T08:52:37.562Z,18.93
2019-04-05T08:55:11.213Z,19.00
2019-04-05T08:57:44.066Z,19.05
2019-04-05T09:00:17.045Z,19.17
2019-04-05T09:02:49.926Z,19.25
2019-04-05T09:05:22.830Z,19.31
2019-04-05T09:07:55.629Z,19.39
2019-04-05T09:10:28.615Z,19.50
2019-04-05T09:13:01.572Z,19.62
2019-04-05T09:15:34.546Z,19.72
2019-04-05T09:18:07.500Z,19.81
2019-04-05T09:20:40.494Z,19.91
2019-04-05T09:23:13.419Z,20.01
2019-04-05T09:25:46.363Z,20.11
2019-04-05T09:28:19.166Z,20.21
2019-04-05T09:30:52.229Z,20.31
2019-04-05T09:33:29.726Z,20.38
2019-04-05T09:36:02.714Z,20.46
2019-04-05T09:38:35.750Z,20.53
2019-04-05T09:41:08.771Z,20.63
2019-04-05T09:43:41.730Z,20.66
2019-04-05T09:46:14.798Z,20.69
2019-04-05T09:48:48.152Z,20.72
2019-04-05T09:51:21.505Z,20.76
2019-04-05T09:53:54.520Z,20.75
2019-04-05T09:56:28.644Z,20.79
2019-04-05T09:59:02.648Z,20.80
2019-04-05T10:01:35.535Z,20.84
2019-04-05T10:04:09.884Z,20.82
2019-04-05T10:06:42.923Z,20.82
2019-04-05T10:09:15.929Z,20.79
2019-04-05T10:11:48.892Z,20.80
2019-04-05T10:14:21.818Z,20.79
2019-04-05T10:16:54.691Z,20.77
2019-04-05T10:19:27.617Z,20.77
2019-04-05T10:22:00.541Z,20.77
2019-04-05T10:24:33.854Z,20.77
2019-04-05T10:27:06.797Z,20.76
2019-04-05T10:29:39.747Z,20.77
2019-04-05T10:32:12.550Z,20.80
2019-04-05T10:34:45.348Z,20.83
2019-04-05T10:37:18.350Z,20.90
2019-04-05T10:39:51.330Z,20.96
2019-04-05T10:42:32.698Z,21.01
2019-04-05T10:45:07.291Z,21.08
2019-04-05T10:47:40.281Z,21.14
2019-04-05T10:50:13.494Z,21.24
2019-04-05T10:52:46.438Z,21.28
2019-04-05T10:55:19.480Z,21.35
2019-04-05T10:57:52.959Z,21.44
2019-04-05T11:00:25.818Z,21.49
2019-04-05T11:03:00.138Z,21.56
2019-04-05T11:05:33.694Z,21.66
2019-04-05T11:08:06.693Z,21.73
2019-04-05T11:10:39.661Z,21.83
2019-04-05T11:13:12.801Z,21.89
2019-04-05T11:15:47.030Z,21.96
2019-04-05T11:18:21.438Z,22.01
2019-04-05T11:20:54.316Z,22.03
2019-04-05T11:23:27.139Z,22.01
2019-04-05T11:26:00.094Z,22.01
2019-04-05T11:28:33.000Z,22.04
2019-04-05T11:31:05.890Z,22.06
2019-04-05T11:33:38.899Z,22.11
2019-04-05T11:36:13.698Z,22.13
2019-04-05T11:38:49.993Z,22.18
2019-04-05T11:41:21.224Z,22.23
2019-04-05T11:43:54.246Z,22.28
2019-04-05T11:46:27.235Z,22.31
2019-04-05T11:49:01.385Z,22.36
2019-04-05T11:51:34.872Z,22.42
2019-04-05T11:54:08.158Z,22.45
2019-04-05T11:56:45.065Z,22.46
2019-04-05T11:59:18.519Z,22.51
2019-04-05T12:01:59.186Z,22.54
2019-04-05T12:04:37.716Z,22.54
2019-04-05T12:07:11.960Z,22.55
2019-04-05T12:09:48.633Z,22.54
2019-04-05T12:12:22.250Z,22.54
2019-04-05T12:14:55.523Z,22.50
2019-04-05T12:17:28.659Z,22.42
2019-04-05T12:20:02.737Z,22.41
2019-04-05T12:22:37.409Z,22.44
2019-04-05T12:25:10.291Z,22.46
2019-04-05T12:27:43.479Z,22.48
2019-04-05T12:30:19.368Z,22.51
2019-04-05T12:32:52.497Z,22.59
2019-04-05T12:35:25.707Z,22.63
2019-04-05T12:37:58.955Z,22.65
2019-04-05T12:40:32.279Z,22.63
2019-04-05T12:43:05.593Z,22.70
2019-04-05T12:45:39.011Z,22.72
2019-04-05T12:48:13.692Z,22.73
2019-04-05T12:50:46.933Z,22.73
2019-04-05T12:53:19.814Z,22.73
2019-04-05T12:55:56.240Z,22.70
2019-04-05T12:58:27.889Z,22.70
2019-04-05T13:01:00.937Z,22.66
2019-04-05T13:03:33.983Z,22.69
2019-04-05T13:06:07.487Z,22.69
2019-04-05T13:08:40.686Z,22.68
2019-04-05T13:11:15.299Z,22.70
2019-04-05T13:13:48.383Z,22.78
2019-04-05T13:16:22.582Z,22.82
2019-04-05T13:18:55.977Z,22.83
2019-04-05T13:21:32.127Z,22.80
2019-04-05T13:24:04.450Z,22.82
2019-04-05T13:26:41.799Z,22.82
2019-04-05T13:29:13.010Z,22.79
2019-04-05T13:31:46.582Z,22.73
2019-04-05T13:34:20.671Z,22.78
2019-04-05T13:36:53.682Z,22.76
2019-04-05T13:39:29.370Z,22.79
2019-04-05T13:42:02.365Z,22.75
2019-04-05T13:44:36.522Z,22.73
2019-04-05T13:47:09.487Z,22.70
2019-04-05T13:49:42.546Z,22.65
2019-04-05T13:52:15.508Z,22.62
2019-04-05T13:54:48.621Z,22.63
2019-04-05T13:57:21.475Z,22.62
2019-04-05T13:59:54.466Z,22.59
2019-04-05T14:02:27.830Z,22.65
2019-04-05T14:05:00.660Z,22.65
2019-04-05T14:07:34.332Z,22.66
2019-04-05T14:10:10.527Z,22.68
2019-04-05T14:12:42.490Z,22.65
2019-04-05T14:15:15.472Z,22.66
2019-04-05T14:17:49.347Z,22.61
2019-04-05T14:20:24.452Z,22.55
2019-04-05T14:22:56.903Z,22.51
2019-04-05T14:25:30.247Z,22.46
2019-04-05T14:28:04.566Z,22.38
2019-04-05T14:30:52.583Z,22.35
2019-04-05T14:33:27.256Z,22.31
2019-04-05T14:36:01.537Z,22.29
2019-04-05T14:38:35.806Z,22.25
2019-04-05T14:41:08.712Z,22.24
2019-04-05T14:43:44.530Z,22.21
2019-04-05T14:46:17.630Z,22.18
2019-04-05T14:48:50.463Z,22.18
2019-04-05T14:51:23.331Z,22.08
2019-04-05T14:53:56.438Z,22.06
2019-04-05T14:56:29.693Z,22.03
2019-04-05T14:59:02.689Z,21.97
2019-04-05T15:01:35.402Z,21.93
2019-04-05T15:04:12.126Z,21.89
2019-04-05T15:06:45.170Z,21.86
2019-04-05T15:09:23.685Z,21.80
2019-04-05T15:11:58.622Z,21.74
2019-04-05T15:14:33.453Z,21.73
2019-04-05T15:17:06.201Z,21.72
2019-04-05T15:19:39.142Z,21.70
2019-04-05T15:22:12.003Z,21.70
2019-04-05T15:24:47.145Z,21.70
2019-04-05T15:27:19.504Z,21.68
2019-04-05T15:29:55.641Z,21.68
2019-04-05T15:32:28.587Z,21.68
2019-04-05T15:35:01.390Z,21.66
2019-04-05T15:37:37.214Z,21.62
2019-04-05T15:40:10.780Z,21.63
2019-04-05T15:42:44.433Z,21.62
2019-04-05T15:45:42.472Z,21.59
2019-04-05T15:48:22.788Z,21.56
2019-04-05T15:50:57.782Z,21.53
2019-04-05T15:53:32.143Z,21.52
2019-04-05T15:56:04.881Z,21.46
2019-04-05T15:58:52.422Z,21.40
2019-04-05T16:01:25.543Z,21.32
2019-04-05T16:03:58.366Z,21.24
2019-04-05T16:06:31.379Z,21.13
2019-04-05T16:09:04.624Z,21.03
2019-04-05T16:11:37.727Z,20.91
2019-04-05T16:14:11.769Z,20.73
2019-04-05T16:16:44.803Z,20.55
2019-04-05T16:19:17.738Z,20.42
2019-04-05T16:21:50.590Z,20.25
2019-04-05T16:24:24.990Z,20.10
2019-04-05T16:26:58.173Z,19.96
2019-04-05T16:29:31.131Z,19.86
2019-04-05T16:32:04.196Z,19.69
2019-04-05T16:34:37.466Z,19.62
2019-04-05T16:37:10.785Z,19.52
2019-04-05T16:39:43.795Z,19.44
2019-04-05T16:42:17.302Z,19.32
2019-04-05T16:44:50.495Z,19.20
2019-04-05T16:47:23.962Z,19.14
2019-04-05T16:49:57.017Z,19.04
2019-04-05T16:52:43.854Z,19.00
2019-04-05T16:55:05.883Z,18.88
2019-04-05T16:57:39.087Z,18.84
2019-04-05T17:00:13.337Z,18.79
2019-04-05T17:02:46.659Z,18.75
2019-04-05T17:05:19.745Z,18.67
2019-04-05T17:07:52.994Z,18.65
2019-04-05T17:10:26.021Z,18.60
2019-04-05T17:12:59.074Z,18.56
2019-04-05T17:15:32.256Z,18.49
2019-04-05T17:18:06.161Z,18.46
2019-04-05T17:20:39.253Z,18.42
2019-04-05T17:23:12.340Z,18.38
2019-04-05T17:25:45.404Z,18.35
2019-04-05T17:28:18.980Z,18.31
2019-04-05T17:30:52.182Z,18.27
2019-04-05T17:33:25.824Z,18.22
2019-04-05T17:35:59.180Z,18.18
2019-04-05T17:38:34.756Z,18.15
2019-04-05T17:41:07.915Z,18.10
2019-04-05T17:43:41.070Z,18.10
2019-04-05T17:46:14.098Z,18.05
2019-04-05T17:48:47.116Z,18.00
2019-04-05T17:51:20.107Z,17.97
2019-04-05T17:53:53.165Z,17.93
2019-04-05T17:56:26.251Z,17.91
2019-04-05T17:58:59.507Z,17.87
2019-04-05T18:01:32.732Z,17.83
2019-04-05T18:04:05.997Z,17.84
2019-04-05T18:06:39.114Z,17.79
2019-04-05T18:09:12.209Z,17.73
2019-04-05T18:11:45.344Z,17.69
2019-04-05T18:14:18.613Z,17.66
2019-04-05T18:16:51.803Z,17.62
2019-04-05T18:19:24.894Z,17.57
2019-04-05T18:21:58.092Z,17.55
2019-04-05T18:24:31.106Z,17.50
2019-04-05T18:27:06.152Z,17.48
2019-04-05T18:29:39.343Z,17.41
2019-04-05T18:32:12.350Z,17.39
2019-04-05T18:34:45.436Z,17.37
2019-04-05T18:37:18.426Z,17.34
2019-04-05T18:39:53.144Z,17.29
2019-04-05T18:42:26.163Z,17.25
2019-04-05T18:44:58.983Z,17.22
2019-04-05T18:47:32.130Z,17.19
2019-04-05T18:50:05.676Z,17.19
2019-04-05T18:52:38.687Z,17.15
2019-04-05T18:55:11.533Z,17.14
2019-04-05T18:57:44.968Z,17.11
2019-04-05T19:00:18.214Z,17.10
2019-04-05T19:02:51.144Z,17.04
2019-04-05T19:05:25.241Z,17.03
2019-04-05T19:07:58.406Z,17.03
2019-04-05T19:10:37.271Z,17.00
2019-04-05T19:13:06.358Z,16.97
2019-04-05T19:15:39.290Z,16.94
2019-04-05T19:18:12.140Z,16.96
2019-04-05T19:20:45.195Z,16.91
2019-04-05T19:23:18.684Z,16.91
2019-04-05T19:25:51.737Z,16.86
2019-04-05T19:28:25.033Z,16.84
2019-04-05T19:49:01.101Z,16.72
2019-04-05T19:51:35.243Z,16.70
2019-04-05T19:54:08.326Z,16.67
2019-04-05T19:56:41.279Z,16.67
2019-04-05T19:59:14.196Z,16.62
2019-04-05T20:01:47.173Z,16.60
2019-04-05T20:04:19.990Z,16.60
2019-04-05T20:06:58.313Z,16.59
2019-04-05T20:09:27.746Z,16.55
2019-04-05T20:12:00.749Z,16.52
2019-04-05T20:14:33.766Z,16.52
2019-04-05T20:17:06.627Z,16.49
2019-04-05T20:19:39.621Z,16.48
2019-04-05T20:22:12.457Z,16.45
2019-04-05T20:24:45.377Z,16.45
2019-04-05T20:27:18.187Z,16.45
2019-04-05T20:29:51.025Z,16.41
2019-04-05T20:32:23.784Z,16.39
2019-04-05T20:34:56.844Z,16.36
2019-04-05T20:37:29.721Z,16.35
2019-04-05T20:40:02.793Z,16.35
2019-04-05T20:42:35.607Z,16.29
2019-04-05T20:45:08.753Z,16.28
2019-04-05T20:47:41.745Z,16.27
2019-04-05T20:50:14.600Z,16.23
2019-04-05T20:52:47.441Z,16.23
2019-04-05T20:55:20.308Z,16.20
2019-04-05T20:57:53.225Z,16.18
2019-04-05T21:00:26.068Z,16.13
2019-04-05T21:02:59.136Z,16.13
2019-04-05T21:05:32.140Z,16.07
2019-04-05T21:08:05.117Z,16.04
2019-04-05T21:10:38.034Z,16.01
2019-04-05T21:13:10.987Z,15.97
2019-04-05T21:15:44.002Z,15.94
2019-04-05T21:18:16.940Z,15.90
2019-04-05T21:20:52.082Z,15.86
2019-04-05T21:23:24.875Z,15.86
2019-04-05T21:25:58.831Z,15.80
2019-04-05T21:28:31.802Z,15.74
2019-04-05T21:31:04.710Z,15.74
2019-04-05T21:33:37.612Z,15.69
2019-04-05T21:36:10.341Z,15.65
2019-04-05T21:38:43.613Z,15.61
2019-04-05T21:41:16.943Z,15.58
2019-04-05T21:43:49.901Z,15.53
2019-04-05T21:46:22.808Z,15.49
2019-04-05T21:48:56.099Z,15.45
2019-04-05T21:51:28.935Z,15.41
2019-04-05T21:54:02.785Z,15.37
2019-04-05T21:56:35.640Z,15.34
2019-04-05T21:59:08.492Z,15.30
2019-04-05T22:01:41.726Z,15.27
2019-04-05T22:04:14.767Z,15.25
2019-04-05T22:06:47.786Z,15.22
2019-04-05T22:09:20.868Z,15.18
2019-04-05T22:11:54.278Z,15.15
2019-04-05T22:14:27.154Z,15.08
2019-04-05T22:17:00.494Z,15.04
2019-04-05T22:19:33.503Z,15.01
2019-04-05T22:22:06.289Z,14.97
2019-04-05T22:24:39.535Z,14.93
2019-04-05T22:27:13.920Z,14.88
2019-04-05T22:29:46.888Z,14.86
2019-04-05T22:32:19.791Z,14.80
2019-04-05T22:34:52.769Z,14.76
2019-04-05T22:37:25.608Z,14.72
2019-04-05T22:39:58.651Z,14.68
2019-04-05T22:42:31.621Z,14.63
2019-04-05T22:45:04.668Z,14.60
2019-04-05T22:47:37.629Z,14.52
2019-04-05T22:50:10.684Z,14.52
2019-04-05T22:52:43.541Z,14.45
2019-04-05T22:55:17.676Z,14.42
2019-04-05T22:57:50.612Z,14.38
2019-04-05T23:00:23.582Z,14.35
2019-04-05T23:02:56.581Z,14.29
2019-04-05T23:05:29.637Z,14.24
2019-04-05T23:08:03.403Z,14.22
2019-04-05T23:10:36.899Z,14.17
2019-04-05T23:13:09.826Z,14.15
2019-04-05T23:15:42.857Z,14.11
2019-04-05T23:18:16.023Z,14.07
2019-04-05T23:20:48.928Z,14.01
2019-04-05T23:23:21.793Z,13.97
2019-04-05T23:25:54.772Z,13.93
2019-04-05T23:28:27.660Z,13.90
2019-04-05T23:31:00.774Z,13.86
2019-04-05T23:33:33.733Z,13.80
2019-04-05T23:36:06.752Z,13.77
2019-04-05T23:38:39.833Z,13.72
2019-04-05T23:41:12.693Z,13.66
2019-04-05T23:43:45.798Z,13.62
2019-04-05T23:46:18.942Z,13.59
2019-04-05T23:48:52.116Z,13.55
2019-04-05T23:51:25.237Z,13.52
2019-04-05T23:53:58.215Z,13.46
2019-04-05T23:56:30.994Z,13.43
2019-04-05T23:59:03.824Z,13.38
